Time;durP1;ratioP1;P1;durP2;ratioP2;P2;SDS_P1;SDS_P2;PMS_P1;PMS_P2;Temp;Humidity;BMP_temperature;BMP_pressure;BME280_temperature;BME280_humidity;BME280_pressure;Samples;Min_cycle;Max_cycle;Signal;HPM_P1;HPM_P2
2022/12/13 00:00:18;;;;;;;;;;;15.40;54.80;;;;;;5082303;28;20092;-64
2022/12/13 00:02:46;;;;;;;8.20;2.47;;;15.40;55.00;;;;;;5080098;28;20055;-63
2022/12/13 00:05:13;;;;;;;6.60;1.38;;;15.40;55.30;;;;;;5078520;28;20095;-62
2022/12/13 00:07:39;;;;;;;3.83;0.93;;;15.40;55.70;;;;;;5082808;28;20126;-63
2022/12/13 00:10:06;;;;;;;6.63;0.80;;;15.30;56.10;;;;;;5080189;28;20075;-62
2022/12/13 00:12:32;;;;;;;7.25;0.80;;;15.30;56.50;;;;;;5079336;28;20081;-63
2022/12/13 00:14:59;;;;;;;5.38;1.00;;;15.10;56.00;;;;;;5080652;28;20077;-62
2022/12/13 00:17:25;;;;;;;;;;;15.10;56.60;;;;;;5074338;28;20073;-61
2022/12/13 00:19:51;;;;;;;10.35;1.10;;;15.00;56.50;;;;;;5075414;28;19988;-62
2022/12/13 00:22:18;;;;;;;15.85;1.60;;;14.90;56.30;;;;;;5077410;28;20568;-62
2022/12/13 00:24:44;;;;;;;;;;;14.80;56.70;;;;;;5083739;28;20081;-63
2022/12/13 00:27:10;;;;;;;11.25;1.65;;;14.80;56.60;;;;;;5075864;28;19988;-62
2022/12/13 00:29:36;;;;;;;;;;;14.70;56.70;;;;;;5075411;28;20178;-62
2022/12/13 00:32:03;;;;;;;10.90;1.20;;;14.70;56.90;;;;;;5085021;28;19956;-61
2022/12/13 00:34:30;;;;;;;10.68;1.73;;;14.60;56.90;;;;;;5078340;28;20064;-61
2022/12/13 00:36:59;;;;;;;14.57;1.90;;;14.60;57.20;;;;;;5080420;28;20244;-61
2022/12/13 00:39:26;;;;;;;3.85;1.42;;;14.50;57.20;;;;;;5075904;28;20069;-61
2022/12/13 00:41:52;;;;;;;8.80;1.35;;;14.50;57.40;;;;;;5082947;28;20561;-62
2022/12/13 00:44:19;;;;;;;8.07;1.20;;;14.50;57.70;;;;;;5083282;28;20072;-62
2022/12/13 00:46:45;;;;;;;5.47;1.23;;;14.40;57.30;;;;;;5085079;28;20481;-61
2022/12/13 00:49:12;;;;;;;;;;;14.40;57.80;;;;;;5078092;28;20078;-61
2022/12/13 00:51:39;;;;;;;7.55;1.10;;;14.40;57.80;;;;;;5084592;28;20011;-63
2022/12/13 00:54:05;;;;;;;2.20;1.10;;;14.40;57.80;;;;;;5080911;28;20549;-64
2022/12/13 00:56:33;;;;;;;8.90;1.42;;;14.30;57.80;;;;;;5082102;28;20491;-63
2022/12/13 00:58:59;;;;;;;7.15;1.02;;;14.30;57.90;;;;;;5079581;28;20102;-63
2022/12/13 01:01:28;;;;;;;4.68;1.13;;;14.30;58.00;;;;;;5079502;28;20103;-60
2022/12/13 01:03:56;;;;;;;10.07;2.40;;;14.40;58.10;;;;;;5077681;28;20484;-62
2022/12/13 01:06:36;;;;;;;15.55;1.35;;;14.30;58.20;;;;;;5076239;28;20149;-62
2022/12/13 01:09:05;;;;;;;5.95;1.10;;;14.30;58.20;;;;;;5076337;28;20073;-62
2022/12/13 01:11:31;;;;;;;8.05;1.23;;;14.30;58.30;;;;;;5077675;28;20160;-62
2022/12/13 01:13:57;;;;;;;;;;;14.40;58.40;;;;;;5085481;28;20075;-64
2022/12/13 01:16:23;;;;;;;5.60;1.75;;;14.30;58.40;;;;;;5079238;28;19965;-61
2022/12/13 01:18:49;;;;;;;;;;;14.30;58.60;;;;;;5083891;28;20065;-62
2022/12/13 01:21:21;;;;;;;7.65;1.50;;;14.30;58.50;;;;;;5087142;28;19984;-62
2022/12/13 01:23:47;;;;;;;8.48;1.50;;;14.30;58.40;;;;;;5082035;28;20156;-61
2022/12/13 01:26:18;;;;;;;;;;;14.30;58.70;;;;;;5079804;28;20107;-62
2022/12/13 01:28:45;;;;;;;19.83;2.20;;;14.30;58.50;;;;;;5079685;28;20003;-61
2022/12/13 01:31:14;;;;;;;6.65;1.50;;;14.30;58.60;;;;;;5078606;28;20073;-61
2022/12/13 01:33:41;;;;;;;11.68;1.60;;;14.30;58.80;;;;;;5079625;28;20076;-62
2022/12/13 01:36:12;;;;;;;8.20;1.83;;;14.40;58.80;;;;;;5076612;28;20077;-62
2022/12/13 01:38:39;;;;;;;11.60;1.98;;;14.30;59.60;;;;;;5075940;28;20126;-64
2022/12/13 01:41:06;;;;;;;4.10;1.90;;;14.30;59.40;;;;;;5076696;28;20085;-62
2022/12/13 01:43:41;;;;;;;5.97;1.90;;;14.30;59.50;;;;;;5076562;28;20656;-62
2022/12/13 01:46:08;;;;;;;9.20;2.17;;;14.30;59.90;;;;;;5081854;28;20459;-64
2022/12/13 01:48:41;;;;;;;6.63;2.38;;;14.30;60.50;;;;;;5085164;28;20129;-63
2022/12/13 01:51:10;;;;;;;5.97;2.15;;;14.20;61.10;;;;;;5082418;28;20541;-63
2022/12/13 01:53:38;;;;;;;8.40;1.83;;;14.20;61.50;;;;;;5085860;28;20084;-64
2022/12/13 01:56:09;;;;;;;3.80;1.65;;;14.20;61.70;;;;;;5080060;28;20073;-63
2022/12/13 01:58:37;;;;;;;5.97;1.50;;;14.10;61.90;;;;;;5085140;28;20099;-63
2022/12/13 02:01:04;;;;;;;6.60;1.60;;;14.10;62.20;;;;;;5084092;28;20534;-62
2022/12/13 02:03:32;;;;;;;4.53;1.60;;;14.10;62.40;;;;;;5082548;28;20092;-65
2022/12/13 02:06:38;;;;;;;5.18;1.55;;;14.10;62.50;;;;;;5082956;28;20088;-64
2022/12/13 02:09:06;;;;;;;5.85;1.80;;;14.00;62.60;;;;;;5079394;28;20529;-62
2022/12/13 02:11:35;;;;;;;8.77;1.90;;;14.00;62.90;;;;;;5064492;28;20073;-65
2022/12/13 02:14:01;;;;;;;6.57;1.42;;;13.90;62.90;;;;;;5085044;28;20110;-63
2022/12/13 02:16:45;;;;;;;;;;;13.90;63.10;;;;;;5086125;28;20073;-65
2022/12/13 02:19:33;;;;;;;6.00;1.80;;;13.90;63.20;;;;;;5077887;28;19976;-63
2022/12/13 02:22:20;;;;;;;8.27;1.65;;;13.90;63.20;;;;;;5085022;28;20172;-63
2022/12/13 02:25:02;;;;;;;;;;;13.80;63.20;;;;;;5090164;28;20529;-62
2022/12/13 02:27:58;;;;;;;6.28;1.25;;;13.90;63.60;;;;;;5082893;28;19962;-64
2022/12/13 02:30:31;;;;;;;7.20;1.52;;;13.80;63.90;;;;;;5071715;28;20453;-64
2022/12/13 02:33:07;;;;;;;3.72;1.45;;;13.80;64.40;;;;;;5083757;28;20069;-64
2022/12/13 02:35:55;;;;;;;8.48;1.77;;;13.70;64.90;;;;;;5084485;28;20546;-65
2022/12/13 02:38:24;;;;;;;;;;;13.70;65.10;;;;;;5082746;28;20076;-63
2022/12/13 02:40:59;;;;;;;8.80;2.75;;;13.60;65.20;;;;;;5080797;28;19972;-62
2022/12/13 02:43:51;;;;;;;15.35;2.03;;;13.60;65.70;;;;;;5076824;28;20065;-65
2022/12/13 02:46:21;;;;;;;9.00;2.25;;;13.50;66.00;;;;;;5079570;28;20084;-63
2022/12/13 02:48:50;;;;;;;9.68;3.17;;;13.50;66.10;;;;;;5085459;28;20069;-63
2022/12/13 02:51:18;;;;;;;8.73;3.22;;;13.40;66.30;;;;;;5081914;28;20073;-65
2022/12/13 02:53:45;;;;;;;4.95;2.50;;;13.40;66.60;;;;;;5083138;28;20133;-62
2022/12/13 02:56:12;;;;;;;14.65;4.25;;;13.40;66.80;;;;;;5084773;28;20073;-63
2022/12/13 02:58:47;;;;;;;18.10;4.07;;;13.30;66.80;;;;;;5077586;28;20565;-64
2022/12/13 03:01:19;;;;;;;18.35;7.18;;;13.30;67.10;;;;;;5076998;28;20092;-62
2022/12/13 03:03:59;;;;;;;12.02;5.60;;;13.30;67.30;;;;;;5083826;28;20073;-62
2022/12/13 03:06:43;;;;;;;13.32;4.75;;;13.30;67.50;;;;;;5082063;28;20429;-63
2022/12/13 03:09:55;;;;;;;11.80;4.25;;;13.30;67.90;;;;;;5078594;28;20065;-65
2022/12/13 03:15:28;;;;;;;11.20;4.38;;;13.10;68.20;;;;;;5078799;28;20539;-62
2022/12/13 03:18:03;;;;;;;11.77;4.85;;;13.00;68.60;;;;;;5084673;28;20184;-63
2022/12/13 03:20:31;;;;;;;12.35;6.90;;;13.00;68.90;;;;;;5080855;28;20100;-63
2022/12/13 03:22:58;;;;;;;16.45;9.90;;;13.00;69.10;;;;;;5080743;28;20080;-63
2022/12/13 03:25:29;;;;;;;11.38;5.32;;;13.00;69.20;;;;;;5079985;28;20069;-66
2022/12/13 03:27:55;;;;;;;20.55;8.93;;;12.90;69.10;;;;;;5080749;28;20475;-62
2022/12/13 03:30:21;;;;;;;;;;;12.90;69.40;;;;;;5078450;28;20077;-65
2022/12/13 03:32:47;;;;;;;15.70;6.95;;;12.90;69.70;;;;;;5078306;28;19956;-65
2022/12/13 03:35:14;;;;;;;7.35;4.20;;;12.80;70.00;;;;;;5081792;28;20541;-64
2022/12/13 03:37:40;;;;;;;;;;;12.80;70.30;;;;;;5081534;28;20160;-65
2022/12/13 03:40:07;;;;;;;12.20;5.47;;;12.70;70.60;;;;;;5079689;28;20110;-65
2022/12/13 03:42:33;;;;;;;12.43;6.28;;;12.70;71.00;;;;;;5077956;28;20586;-63
2022/12/13 03:44:59;;;;;;;;;;;12.60;71.30;;;;;;5080905;28;20092;-62
2022/12/13 03:47:25;;;;;;;16.52;5.05;;;12.60;71.60;;;;;;5083426;28;20425;-62
2022/12/13 03:49:51;;;;;;;;;;;12.50;71.90;;;;;;5084619;28;20549;-62
2022/12/13 03:52:18;;;;;;;6.93;2.85;;;12.50;72.20;;;;;;5079421;28;20055;-63
2022/12/13 03:54:44;;;;;;;;;;;12.40;72.40;;;;;;5080131;28;20151;-65
2022/12/13 03:57:10;;;;;;;6.18;3.60;;;12.40;72.80;;;;;;5079516;28;20051;-65
2022/12/13 03:59:36;;;;;;;;;;;12.40;73.20;;;;;;5086861;28;20077;-64
2022/12/13 04:02:02;;;;;;;5.68;2.05;;;12.20;73.50;;;;;;5080326;28;19977;-63
2022/12/13 04:04:28;;;;;;;;;;;12.20;73.90;;;;;;5075946;28;20099;-63
2022/12/13 04:06:55;;;;;;;6.90;2.08;;;12.20;74.40;;;;;;5074871;28;19992;-62
2022/12/13 04:09:21;;;;;;;9.55;1.98;;;12.10;74.70;;;;;;5081551;28;20154;-63
2022/12/13 04:14:32;;;;;;;6.32;1.30;;;12.00;75.60;;;;;;5080334;28;20630;-65
2022/12/13 04:16:58;;;;;;;;;;;12.00;76.10;;;;;;5076933;28;20100;-63
2022/12/13 04:19:25;;;;;;;2.72;1.20;;;11.90;76.70;;;;;;5079204;28;20361;-64
2022/12/13 04:21:53;;;;;;;5.55;1.50;;;11.90;76.80;;;;;;5084402;28;20146;-62
2022/12/13 04:24:21;;;;;;;5.82;1.30;;;11.80;77.10;;;;;;5081279;28;20189;-64
2022/12/13 04:26:47;;;;;;;2.70;1.30;;;11.80;77.50;;;;;;5078659;28;20072;-64
2022/12/13 04:29:13;;;;;;;;;;;11.80;77.80;;;;;;5080541;28;20084;-65
2022/12/13 04:31:39;;;;;;;6.03;1.73;;;11.80;78.00;;;;;;5076879;28;19965;-63
2022/12/13 04:34:05;;;;;;;;;;;11.70;78.40;;;;;;5081118;28;20093;-64
2022/12/13 04:36:32;;;;;;;4.90;1.40;;;11.70;78.80;;;;;;5077487;28;19960;-64
2022/12/13 04:38:59;;;;;;;;;;;11.60;79.30;;;;;;5077851;28;20073;-64
2022/12/13 04:41:25;;;;;;;4.40;1.03;;;11.60;79.40;;;;;;5079696;28;20441;-64
2022/12/13 04:43:52;;;;;;;;;;;11.60;79.50;;;;;;5079789;28;20382;-63
2022/12/13 04:46:22;;;;;;;7.13;1.27;;;11.60;79.70;;;;;;5081355;28;19964;-64
2022/12/13 04:48:48;;;;;;;2.28;0.85;;;11.60;80.00;;;;;;5085106;28;20458;-63
2022/12/13 04:51:15;;;;;;;;;;;11.60;80.10;;;;;;5076359;28;20138;-65
2022/12/13 04:53:41;;;;;;;3.47;0.98;;;11.60;80.50;;;;;;5080345;28;20015;-63
2022/12/13 04:56:08;;;;;;;2.08;1.00;;;11.60;80.50;;;;;;5076413;28;20122;-63
2022/12/13 04:58:35;;;;;;;2.05;0.80;;;11.60;80.60;;;;;;5075499;28;20168;-63
2022/12/13 05:01:01;;;;;;;4.30;0.90;;;11.50;80.80;;;;;;5075961;28;20138;-63
2022/12/13 05:03:27;;;;;;;;;;;11.50;80.90;;;;;;5080260;28;20073;-62
2022/12/13 05:05:53;;;;;;;3.10;0.90;;;11.50;81.00;;;;;;5075910;28;20051;-62
2022/12/13 05:08:19;;;;;;;;;;;11.50;81.10;;;;;;5081748;28;20081;-64
2022/12/13 05:10:46;;;;;;;3.17;0.80;;;11.50;81.30;;;;;;5078676;28;19961;-64
2022/12/13 05:13:12;;;;;;;2.38;1.00;;;11.50;81.20;;;;;;5085654;28;20571;-63
2022/12/13 05:15:38;;;;;;;;;;;11.50;81.20;;;;;;5080114;28;20320;-62
2022/12/13 05:18:06;;;;;;;7.43;3.25;;;11.50;81.40;;;;;;5083029;28;19959;-64
2022/12/13 05:20:34;;;;;;;9.20;4.78;;;11.40;81.30;;;;;;5082182;28;20115;-63
2022/12/13 05:23:01;;;;;;;10.13;3.85;;;11.40;81.20;;;;;;5084842;28;20149;-64
2022/12/13 05:25:27;;;;;;;;;;;11.40;81.60;;;;;;5088145;28;20072;-62
2022/12/13 05:27:56;;;;;;;7.93;4.00;;;11.40;81.70;;;;;;5084083;28;19964;-62
2022/12/13 05:30:22;;;;;;;10.48;5.53;;;11.40;81.80;;;;;;5078064;28;20488;-63
2022/12/13 05:32:48;;;;;;;;;;;11.40;81.70;;;;;;5080810;28;20182;-62
2022/12/13 05:35:15;;;;;;;7.13;2.55;;;11.40;81.90;;;;;;5079873;28;19964;-62
2022/12/13 05:37:42;;;;;;;4.05;2.15;;;11.40;82.10;;;;;;5080063;28;20100;-64
2022/12/13 05:40:08;;;;;;;;;;;11.30;82.30;;;;;;5087059;28;20085;-64
2022/12/13 05:42:37;;;;;;;4.77;1.80;;;11.30;82.20;;;;;;5084613;28;20431;-64
2022/12/13 05:45:06;;;;;;;4.57;1.90;;;11.20;82.80;;;;;;5085743;28;20097;-63
2022/12/13 05:47:33;;;;;;;5.15;2.70;;;11.20;82.80;;;;;;5083175;28;20076;-63
2022/12/13 05:49:59;;;;;;;;;;;11.30;82.50;;;;;;5083757;28;20076;-62
2022/12/13 05:52:25;;;;;;;9.48;2.78;;;11.20;82.50;;;;;;5084180;28;19957;-62
2022/12/13 05:54:55;;;;;;;;;;;11.20;82.80;;;;;;5084894;28;20099;-66
2022/12/13 05:57:22;;;;;;;3.92;2.35;;;11.20;83.20;;;;;;5084130;28;20018;-61
2022/12/13 05:59:48;;;;;;;3.55;1.77;;;11.10;83.70;;;;;;5079123;28;20126;-63
2022/12/13 06:02:16;;;;;;;3.38;1.70;;;11.10;83.60;;;;;;5081403;28;20114;-63
2022/12/13 06:04:43;;;;;;;3.03;1.70;;;11.10;83.40;;;;;;5080166;28;20128;-65
2022/12/13 06:07:11;;;;;;;5.70;1.73;;;11.10;83.60;;;;;;5084454;28;20494;-63
2022/12/13 06:09:37;;;;;;;6.13;1.30;;;11.10;83.60;;;;;;5081915;28;20484;-65
2022/12/13 06:12:04;;;;;;;2.17;1.20;;;11.10;83.60;;;;;;5080118;28;20125;-63
2022/12/13 06:14:30;;;;;;;12.35;1.40;;;11.10;83.70;;;;;;5083382;28;20066;-62
2022/12/13 06:16:56;;;;;;;;;;;11.10;83.90;;;;;;5081914;28;20074;-66
2022/12/13 06:19:23;;;;;;;3.90;1.20;;;11.10;84.20;;;;;;5082219;28;20126;-63
2022/12/13 06:21:52;;;;;;;4.03;1.38;;;11.10;84.40;;;;;;5077275;28;20097;-65
2022/12/13 06:24:20;;;;;;;4.97;1.50;;;11.00;84.80;;;;;;5079466;28;20070;-61
2022/12/13 06:26:47;;;;;;;6.13;1.10;;;11.10;85.20;;;;;;5082348;28;20118;-64
2022/12/13 06:29:15;;;;;;;2.92;1.20;;;11.10;85.20;;;;;;5080128;28;20065;-66
2022/12/13 06:31:42;;;;;;;4.45;1.23;;;11.00;85.40;;;;;;5080313;28;20434;-61
2022/12/13 06:34:08;;;;;;;3.75;1.35;;;11.00;85.80;;;;;;5078848;28;20109;-64
2022/12/13 06:36:34;;;;;;;;;;;10.90;85.80;;;;;;5087180;28;20084;-65
2022/12/13 06:39:05;;;;;;;6.57;2.15;;;10.90;86.20;;;;;;5082713;28;20066;-63
2022/12/13 06:41:32;;;;;;;5.40;1.85;;;10.90;86.40;;;;;;5080780;28;20088;-64
2022/12/13 06:43:59;;;;;;;3.55;1.90;;;10.90;86.50;;;;;;5082270;28;20068;-63
2022/12/13 06:46:26;;;;;;;7.07;1.17;;;10.90;86.70;;;;;;5078447;28;20077;-63
2022/12/13 06:48:52;;;;;;;4.07;1.38;;;10.80;86.80;;;;;;5083238;28;20073;-63
2022/12/13 06:51:19;;;;;;;3.17;1.30;;;10.80;87.60;;;;;;5081693;28;20160;-62
2022/12/13 06:53:45;;;;;;;3.60;1.02;;;10.80;86.90;;;;;;5081529;28;20084;-62
2022/12/13 06:56:12;;;;;;;;;;;10.70;87.10;;;;;;5082084;28;20075;-63
2022/12/13 06:58:40;;;;;;;4.22;1.13;;;10.80;87.20;;;;;;5082991;28;19965;-63
2022/12/13 07:01:12;;;;;;;2.72;1.13;;;10.80;87.10;;;;;;5082147;28;20123;-66
2022/12/13 07:03:39;;;;;;;3.22;0.80;;;10.70;87.20;;;;;;5081351;28;20453;-63
2022/12/13 07:06:14;;;;;;;2.70;1.10;;;10.70;87.10;;;;;;5085726;28;20092;-62
2022/12/13 07:08:52;;;;;;;3.53;0.90;;;10.70;87.10;;;;;;5079065;28;20077;-63
2022/12/13 07:11:21;;;;;;;4.88;1.05;;;10.70;87.20;;;;;;5075197;28;20077;-62
2022/12/13 07:13:48;;;;;;;3.67;1.10;;;10.70;87.40;;;;;;5079769;28;20132;-65
2022/12/13 07:16:14;;;;;;;;;;;10.70;87.40;;;;;;5086560;28;20151;-65
2022/12/13 07:18:40;;;;;;;5.10;1.23;;;10.70;87.20;;;;;;5081961;28;19961;-62
2022/12/13 07:21:07;;;;;;;;;;;10.70;87.20;;;;;;5084337;28;20107;-63
2022/12/13 07:23:35;;;;;;;7.50;1.08;;;10.70;87.30;;;;;;5079106;28;19964;-65
2022/12/13 07:26:02;;;;;;;5.88;1.10;;;10.70;87.60;;;;;;5082255;28;20069;-63
2022/12/13 07:28:31;;;;;;;6.50;1.50;;;10.60;87.80;;;;;;5079894;28;20076;-63
2022/12/13 07:31:01;;;;;;;6.78;1.20;;;10.60;87.80;;;;;;5081325;28;20069;-65
2022/12/13 07:33:33;;;;;;;6.00;1.08;;;10.50;88.40;;;;;;5083217;28;20081;-65
2022/12/13 07:36:14;;;;;;;5.07;1.30;;;10.50;88.40;;;;;;5082020;28;20546;-63
2022/12/13 07:38:40;;;;;;;6.70;1.95;;;10.50;88.50;;;;;;5082147;28;20085;-62
2022/12/13 07:41:06;;;;;;;;;;;10.50;88.70;;;;;;5082460;28;20092;-63
2022/12/13 07:43:34;;;;;;;5.30;1.38;;;10.50;89.00;;;;;;5080112;28;20001;-63
2022/12/13 07:46:04;;;;;;;6.10;1.30;;;10.50;89.20;;;;;;5078496;28;20569;-62
2022/12/13 07:48:30;;;;;;;5.18;1.23;;;10.40;89.30;;;;;;5076662;28;21259;-64
2022/12/13 07:51:02;;;;;;;2.33;0.80;;;10.40;89.70;;;;;;5079181;28;20433;-65
2022/12/13 07:53:28;;;;;;;4.78;1.10;;;10.40;89.70;;;;;;5078148;28;20119;-63
2022/12/13 07:55:54;;;;;;;;;;;10.40;89.70;;;;;;5077449;28;20085;-62
2022/12/13 07:58:21;;;;;;;3.75;1.25;;;10.40;89.40;;;;;;5078830;28;20043;-64
2022/12/13 08:00:48;;;;;;;2.03;1.27;;;10.40;89.10;;;;;;5073232;28;20096;-63
2022/12/13 08:03:15;;;;;;;4.63;1.67;;;10.40;88.90;;;;;;5085473;28;20075;-64
2022/12/13 08:05:42;;;;;;;3.58;1.60;;;10.40;88.80;;;;;;5077943;28;20085;-62
2022/12/13 08:08:09;;;;;;;;;;;10.30;89.10;;;;;;5082222;28;20144;-65
2022/12/13 08:10:36;;;;;;;1.58;1.17;;;10.30;89.50;;;;;;5078515;28;20419;-61
2022/12/13 08:13:03;;;;;;;3.58;1.58;;;10.30;89.10;;;;;;5076860;28;20080;-63
2022/12/13 08:15:30;;;;;;;2.35;1.20;;;10.30;89.20;;;;;;5085270;28;20083;-63
2022/12/13 08:17:59;;;;;;;4.32;1.73;;;10.30;89.10;;;;;;5080264;28;20089;-63
2022/12/13 08:20:26;;;;;;;4.93;1.60;;;10.30;89.00;;;;;;5078484;28;20450;-63
2022/12/13 08:22:57;;;;;;;8.52;1.85;;;10.20;89.20;;;;;;5078763;28;20069;-62
2022/12/13 08:25:23;;;;;;;3.88;1.58;;;10.30;89.30;;;;;;5078493;28;20126;-65
2022/12/13 08:27:50;;;;;;;2.97;1.88;;;10.20;89.10;;;;;;5077956;28;20064;-62
2022/12/13 08:30:17;;;;;;;4.28;1.70;;;10.20;90.10;;;;;;5081184;28;20075;-62
2022/12/13 08:32:43;;;;;;;3.17;1.60;;;10.20;89.60;;;;;;5075171;28;20210;-64
2022/12/13 08:35:10;;;;;;;7.90;1.70;;;10.10;90.00;;;;;;5079937;28;20157;-62
2022/12/13 08:37:36;;;;;;;4.22;1.70;;;9.90;90.30;;;;;;5076876;28;20170;-63
2022/12/13 08:40:05;;;;;;;;;;;9.80;90.70;;;;;;5082064;28;20080;-62
2022/12/13 08:42:31;;;;;;;3.45;1.80;;;10.00;90.70;;;;;;5076311;28;20410;-63
2022/12/13 08:44:57;;;;;;;;;;;10.00;90.60;;;;;;5079741;28;20153;-63
2022/12/13 08:47:25;;;;;;;5.88;1.98;;;10.00;90.60;;;;;;5079332;28;19971;-65
2022/12/13 08:49:53;;;;;;;5.47;1.88;;;10.00;90.50;;;;;;5077982;28;20069;-64
2022/12/13 08:52:22;;;;;;;7.68;1.75;;;9.90;90.60;;;;;;5078345;28;20060;-63
2022/12/13 08:54:48;;;;;;;3.78;2.08;;;9.90;90.70;;;;;;5079946;28;20429;-66
2022/12/13 08:57:14;;;;;;;5.13;2.15;;;9.90;90.80;;;;;;5082110;28;20104;-61
2022/12/13 08:59:40;;;;;;;;;;;9.80;90.80;;;;;;5083143;28;20069;-63
2022/12/13 09:02:11;;;;;;;3.15;2.17;;;9.60;91.10;;;;;;5085189;28;19980;-63
2022/12/13 09:04:38;;;;;;;7.53;2.78;;;9.60;91.30;;;;;;5086234;28;20216;-63
2022/12/13 09:07:04;;;;;;;;;;;9.50;91.50;;;;;;5083913;28;20467;-65
2022/12/13 09:09:30;;;;;;;6.90;2.65;;;9.60;91.80;;;;;;5083463;28;19973;-62
2022/12/13 09:11:57;;;;;;;4.82;2.60;;;9.60;91.60;;;;;;5084691;28;20068;-63
2022/12/13 09:14:23;;;;;;;;;;;9.60;91.60;;;;;;5084440;28;20072;-62
2022/12/13 09:16:49;;;;;;;4.45;2.50;;;9.60;91.70;;;;;;5086713;28;19972;-64
2022/12/13 09:19:16;;;;;;;6.82;2.60;;;9.60;91.80;;;;;;5086141;28;20108;-63
2022/12/13 09:21:42;;;;;;;;;;;9.70;91.80;;;;;;5082812;28;20534;-62
2022/12/13 09:24:08;;;;;;;6.88;1.83;;;9.60;91.40;;;;;;5080879;28;20056;-65
2022/12/13 09:26:34;;;;;;;;;;;9.50;91.50;;;;;;5083325;28;20069;-62
2022/12/13 09:29:00;;;;;;;5.82;2.30;;;9.50;91.60;;;;;;5084996;28;19956;-63
2022/12/13 09:31:26;;;;;;;;;;;9.50;91.70;;;;;;5084496;28;20622;-65
2022/12/13 09:33:53;;;;;;;6.22;2.08;;;9.50;91.60;;;;;;5086585;28;20011;-63
2022/12/13 09:36:20;;;;;;;6.90;1.83;;;9.50;91.60;;;;;;5081332;28;20181;-63
2022/12/13 09:38:47;;;;;;;5.50;1.92;;;9.40;91.50;;;;;;5076387;28;20072;-64
2022/12/13 09:41:38;;;;;;;4.85;1.95;;;9.20;91.90;;;;;;5083768;28;20088;-62
2022/12/13 09:44:13;;;;;;;3.53;1.70;;;9.20;92.10;;;;;;5077073;28;20069;-63
2022/12/13 09:46:43;;;;;;;7.15;2.13;;;9.20;91.90;;;;;;5084004;28;20087;-62
2022/12/13 09:49:34;;;;;;;7.05;2.42;;;8.90;92.40;;;;;;5079978;28;20097;-62
2022/12/13 09:52:02;;;;;;;6.47;2.28;;;8.90;92.90;;;;;;5080991;28;20084;-62
2022/12/13 09:54:29;;;;;;;8.10;2.35;;;8.90;93.00;;;;;;5085253;28;20083;-62
2022/12/13 09:57:04;;;;;;;;;;;9.00;92.80;;;;;;5081824;28;20092;-64
2022/12/13 09:59:34;;;;;;;7.50;2.70;;;9.00;92.70;;;;;;5080772;28;20492;-63
2022/12/13 10:02:15;;;;;;;8.63;2.70;;;9.10;92.50;;;;;;5090676;28;20143;-65
2022/12/13 10:04:42;;;;;;;5.07;2.53;;;9.10;92.40;;;;;;5082354;28;20119;-66
2022/12/13 10:07:17;;;;;;;6.10;2.55;;;9.10;92.10;;;;;;5088288;28;20083;-63
2022/12/13 10:09:44;;;;;;;9.05;2.25;;;9.10;91.80;;;;;;5083059;28;20072;-63
2022/12/13 10:12:14;;;;;;;5.47;2.30;;;9.10;91.70;;;;;;5078763;28;20126;-64
2022/12/13 10:14:49;;;;;;;5.28;2.17;;;8.90;91.70;;;;;;5086150;28;20106;-63
2022/12/13 10:17:24;;;;;;;6.22;2.90;;;8.90;92.00;;;;;;5087438;28;20129;-63
2022/12/13 10:19:51;;;;;;;7.35;3.28;;;8.80;92.10;;;;;;5077764;28;20209;-63
2022/12/13 10:22:21;;;;;;;8.38;3.90;;;8.80;92.50;;;;;;5082249;28;20183;-63
2022/12/13 10:25:06;;;;;;;6.95;3.70;;;8.70;92.90;;;;;;5085394;28;20084;-64
2022/12/13 10:27:42;;;;;;;7.25;3.50;;;8.60;93.00;;;;;;5085434;28;20098;-62
2022/12/13 10:30:27;;;;;;;10.20;3.55;;;8.70;93.20;;;;;;5080697;28;20142;-61
2022/12/13 10:33:01;;;;;;;7.22;3.20;;;8.60;93.20;;;;;;5073702;28;20111;-62
2022/12/13 10:35:31;;;;;;;6.53;2.60;;;8.70;93.20;;;;;;5081395;28;20069;-62
2022/12/13 10:38:00;;;;;;;6.80;2.47;;;8.70;93.40;;;;;;5084745;28;20077;-64
2022/12/13 10:40:39;;;;;;;3.92;2.28;;;8.80;93.50;;;;;;5076463;28;20100;-62
2022/12/13 10:43:22;;;;;;;6.68;2.58;;;8.70;93.50;;;;;;5079023;28;20065;-62
2022/12/13 10:45:57;;;;;;;4.40;2.08;;;8.80;93.90;;;;;;5081418;28;20544;-64
2022/12/13 10:48:30;;;;;;;7.30;2.47;;;8.90;93.90;;;;;;5081368;28;20076;-63
2022/12/13 10:51:03;;;;;;;8.07;2.58;;;8.90;93.60;;;;;;5083563;28;20103;-61
2022/12/13 10:53:39;;;;;;;5.53;2.60;;;8.80;93.60;;;;;;5082032;28;20508;-64
2022/12/13 10:56:06;;;;;;;5.68;2.78;;;8.80;93.90;;;;;;5084141;28;20072;-64
2022/12/13 10:58:42;;;;;;;8.68;2.72;;;8.80;93.90;;;;;;5085192;28;20643;-63
2022/12/13 11:01:19;;;;;;;4.38;1.60;;;8.80;93.90;;;;;;5081710;28;20123;-63
2022/12/13 11:04:03;;;;;;;6.65;1.75;;;8.70;93.50;;;;;;5078580;28;20068;-62
2022/12/13 11:06:44;;;;;;;7.43;1.77;;;8.70;93.80;;;;;;5078490;28;20093;-65
2022/12/13 11:09:37;;;;;;;5.30;1.52;;;8.70;93.70;;;;;;5077096;28;20096;-65
2022/12/13 11:12:12;;;;;;;6.28;1.77;;;8.70;93.70;;;;;;5080353;28;20096;-62
2022/12/13 11:14:59;;;;;;;6.10;1.85;;;8.60;93.90;;;;;;5080498;28;20131;-62
2022/12/13 11:17:29;;;;;;;4.13;1.80;;;8.60;94.00;;;;;;5084189;28;20138;-63
2022/12/13 11:19:59;;;;;;;4.15;2.17;;;8.60;94.00;;;;;;5079801;28;20136;-62
2022/12/13 11:22:37;;;;;;;4.25;2.13;;;8.60;94.10;;;;;;5079096;28;20100;-64
2022/12/13 11:25:06;;;;;;;6.63;2.40;;;8.50;94.20;;;;;;5080006;28;20069;-64
2022/12/13 11:27:33;;;;;;;5.95;1.92;;;8.40;94.30;;;;;;5078472;28;20159;-62
2022/12/13 11:30:11;;;;;;;;;;;8.40;94.60;;;;;;5079010;28;20156;-62
2022/12/13 11:33:25;;;;;;;10.27;2.15;;;8.40;94.90;;;;;;5079729;28;19972;-63
2022/12/13 11:36:19;;;;;;;4.13;1.95;;;8.40;95.00;;;;;;5073386;28;20554;-63
2022/12/13 11:38:48;;;;;;;6.28;2.10;;;8.30;95.10;;;;;;5078335;28;20167;-64
2022/12/13 11:41:24;;;;;;;4.88;1.77;;;8.30;95.30;;;;;;5083920;28;20116;-65
2022/12/13 11:43:59;;;;;;;4.45;1.80;;;8.20;95.50;;;;;;5082668;28;20080;-63
2022/12/13 11:46:42;;;;;;;4.40;2.20;;;8.00;95.60;;;;;;5082918;28;20476;-65
2022/12/13 11:49:31;;;;;;;10.65;2.90;;;8.00;95.90;;;;;;5082370;28;20141;-62
2022/12/13 11:52:04;;;;;;;5.32;2.65;;;8.00;96.20;;;;;;5076126;28;20137;-63
2022/12/13 11:54:47;;;;;;;8.43;4.20;;;7.90;96.20;;;;;;5079363;28;20111;-65
2022/12/13 11:57:37;;;;;;;8.95;4.70;;;8.00;96.50;;;;;;5079196;28;20088;-62
2022/12/13 12:00:26;;;;;;;10.50;6.35;;;7.90;96.50;;;;;;5080145;28;20160;-65
2022/12/13 12:02:57;;;;;;;13.40;7.55;;;7.90;96.80;;;;;;5078091;28;20211;-63
2022/12/13 12:05:33;;;;;;;12.35;8.20;;;7.90;96.90;;;;;;5082067;28;20085;-64
2022/12/13 12:08:20;;;;;;;13.85;9.10;;;7.80;97.20;;;;;;5081819;28;20087;-64
2022/12/13 12:10:53;;;;;;;15.68;9.02;;;7.80;97.30;;;;;;5082169;28;20088;-65
2022/12/13 12:13:38;;;;;;;18.65;11.32;;;7.90;97.30;;;;;;5084168;28;20075;-62
2022/12/13 12:16:18;;;;;;;17.08;10.75;;;7.80;97.20;;;;;;5080841;28;20079;-64
2022/12/13 12:18:44;;;;;;;17.70;10.40;;;7.70;97.50;;;;;;5074623;28;20085;-65
2022/12/13 12:21:13;;;;;;;;;;;7.80;97.80;;;;;;5079327;28;20105;-63
2022/12/13 12:23:51;;;;;;;17.65;11.40;;;7.80;97.30;;;;;;5082851;28;20356;-62
2022/12/13 12:26:25;;;;;;;21.30;12.35;;;7.80;97.20;;;;;;5078769;28;20073;-63
2022/12/13 12:29:37;;;;;;;17.77;12.07;;;7.80;97.20;;;;;;5077708;28;20148;-63
2022/12/13 12:32:42;;;;;;;19.30;12.23;;;7.80;97.40;;;;;;5053572;28;20138;-64
2022/12/13 12:35:27;;;;;;;20.45;12.73;;;7.80;97.30;;;;;;5061855;28;20076;-64
2022/12/13 12:38:07;;;;;;;21.00;12.65;;;7.70;97.30;;;;;;5078845;28;20163;-64
2022/12/13 12:40:52;;;;;;;19.98;12.55;;;7.70;97.40;;;;;;5076845;28;20092;-63
2022/12/13 12:43:33;;;;;;;19.58;13.00;;;7.60;97.60;;;;;;5078447;28;20069;-65
2022/12/13 12:46:15;;;;;;;24.75;13.45;;;7.60;97.80;;;;;;5077390;28;20467;-64
2022/12/13 12:49:18;;;;;;;28.98;15.73;;;7.60;97.90;;;;;;5075683;28;20069;-64
2022/12/13 12:51:51;;;;;;;28.25;16.48;;;7.40;97.90;;;;;;5080121;28;20080;-64
2022/12/13 12:55:02;;;;;;;27.17;15.20;;;7.30;98.20;;;;;;5078929;28;20538;-63
2022/12/13 12:58:05;;;;;;;26.10;15.60;;;7.30;98.50;;;;;;5079799;28;20583;-65
2022/12/13 13:00:52;;;;;;;26.27;15.82;;;7.20;99.20;;;;;;5081016;28;20188;-62
2022/12/13 13:03:22;;;;;;;26.27;15.77;;;7.30;99.30;;;;;;5082854;28;20069;-64
2022/12/13 13:05:56;;;;;;;34.60;15.27;;;7.40;98.90;;;;;;5077921;28;20675;-62
2022/12/13 13:08:37;;;;;;;23.13;15.70;;;7.40;98.70;;;;;;5082684;28;20076;-62
2022/12/13 13:11:05;;;;;;;24.42;16.10;;;7.40;98.40;;;;;;5082173;28;20080;-62
2022/12/13 13:13:35;;;;;;;22.52;14.13;;;7.50;98.50;;;;;;5079127;28;20122;-63
2022/12/13 13:16:03;;;;;;;25.75;15.10;;;7.40;98.30;;;;;;5086021;28;20414;-63
2022/12/13 13:18:50;;;;;;;24.17;14.68;;;7.30;98.30;;;;;;5086690;28;20542;-62
2022/12/13 13:21:22;;;;;;;25.35;15.40;;;7.30;98.50;;;;;;5081142;28;20115;-63
2022/12/13 13:24:08;;;;;;;25.17;15.18;;;7.40;98.60;;;;;;5079768;28;20177;-64
2022/12/13 13:26:42;;;;;;;29.65;16.90;;;7.30;98.40;;;;;;5078922;28;20087;-63